Time;durP1;ratioP1;P1;durP2;ratioP2;P2;SDS_P1;SDS_P2;PMS_P1;PMS_P2;Temp;Humidity;BMP_temperature;BMP_pressure;BME280_temperature;BME280_humidity;BME280_pressure;Samples;Min_cycle;Max_cycle;Signal;HPM_P1;HPM_P2
2023/10/06 00:03:14;;;;;;;9.15;4.53;;;12.10;99.90;;;;;;4971577;28;20146;-66
2023/10/06 00:05:44;;;;;;;;;;;12.10;99.90;;;;;;4964811;28;20026;-65
2023/10/06 00:08:11;;;;;;;8.40;3.83;;;12.10;99.90;;;;;;4967765;28;20287;-69
2023/10/06 00:10:44;;;;;;;12.93;3.95;;;12.10;99.90;;;;;;4966720;28;20059;-69
2023/10/06 00:13:23;;;;;;;7.80;4.28;;;12.00;99.90;;;;;;4963257;28;20039;-66
2023/10/06 00:15:51;;;;;;;10.77;4.72;;;12.00;99.90;;;;;;4965957;28;20551;-65
2023/10/06 00:18:26;;;;;;;10.85;4.55;;;12.00;99.90;;;;;;4966268;28;20442;-69
2023/10/06 00:20:56;;;;;;;11.32;4.15;;;11.90;99.90;;;;;;4963643;28;20031;-69
2023/10/06 00:23:23;;;;;;;9.05;4.47;;;11.90;99.90;;;;;;4966849;28;20035;-68
2023/10/06 00:25:54;;;;;;;10.30;4.20;;;11.90;99.90;;;;;;4963301;28;20038;-65
2023/10/06 00:28:27;;;;;;;11.77;4.10;;;11.80;99.90;;;;;;4962820;28;20730;-66
2023/10/06 00:30:57;;;;;;;10.27;4.63;;;;;;;;;;4967092;28;20502;-64
2023/10/06 00:33:31;;;;;;;5.80;3.38;;;;;;;;;;4963568;28;20031;-65
2023/10/06 00:35:59;;;;;;;8.45;4.20;;;;;;;;;;4967059;28;20101;-65
2023/10/06 00:38:27;;;;;;;10.48;3.88;;;;;;;;;;4964042;28;20034;-63
2023/10/06 00:40:58;;;;;;;6.15;3.38;;;;;;;;;;4960236;28;20538;-65
2023/10/06 00:43:34;;;;;;;19.05;5.03;;;;;;;;;;4966844;28;20411;-63
2023/10/06 00:46:01;;;;;;;9.88;4.18;;;;;;;;;;4966781;28;20062;-64
2023/10/06 00:48:29;;;;;;;9.50;3.88;;;;;;;;;;4964721;28;20049;-66
2023/10/06 00:50:57;;;;;;;8.60;3.42;;;12.40;99.90;;;;;;4966238;28;20041;-65
2023/10/06 00:53:31;;;;;;;9.60;3.97;;;11.60;99.90;;;;;;4966942;28;20475;-64
2023/10/06 00:56:00;;;;;;;10.85;4.45;;;11.70;99.90;;;;;;4965235;28;20039;-67
2023/10/06 00:58:34;;;;;;;8.38;4.00;;;11.70;99.90;;;;;;4963783;28;20121;-64
2023/10/06 01:01:06;;;;;;;14.02;4.78;;;11.60;99.90;;;;;;4961824;28;20482;-65
2023/10/06 01:03:38;;;;;;;7.90;4.28;;;11.60;99.90;;;;;;5001104;28;20129;-67
2023/10/06 01:06:14;;;;;;;6.07;4.07;;;11.60;99.90;;;;;;4968942;28;20026;-68
2023/10/06 01:08:48;;;;;;;7.90;4.05;;;11.60;99.90;;;;;;4968462;28;20495;-63
2023/10/06 01:11:17;;;;;;;13.38;5.95;;;11.50;99.90;;;;;;4969996;28;20035;-65
2023/10/06 01:13:56;;;;;;;7.93;4.80;;;11.50;99.90;;;;;;4967510;28;20049;-66
2023/10/06 01:16:37;;;;;;;7.72;3.85;;;11.50;99.90;;;;;;4963407;28;20043;-65
2023/10/06 01:19:17;;;;;;;15.15;4.10;;;11.40;99.90;;;;;;4970292;28;20034;-65
2023/10/06 01:21:45;;;;;;;9.68;4.18;;;11.40;99.90;;;;;;4966425;28;20039;-64
2023/10/06 01:24:14;;;;;;;10.00;3.80;;;11.40;99.90;;;;;;4968263;28;20117;-66
2023/10/06 01:26:41;;;;;;;13.10;4.30;;;11.40;99.90;;;;;;4968505;28;20035;-64
2023/10/06 01:29:10;;;;;;;11.73;4.45;;;11.30;99.90;;;;;;4968229;28;20138;-64
2023/10/06 01:31:41;;;;;;;6.53;3.78;;;11.30;99.90;;;;;;4999556;28;20033;-64
2023/10/06 01:34:11;;;;;;;9.90;4.72;;;11.30;99.90;;;;;;4969062;28;20034;-64
2023/10/06 01:36:39;;;;;;;9.43;4.20;;;11.30;99.90;;;;;;4967868;28;20027;-63
2023/10/06 01:39:17;;;;;;;10.15;4.50;;;11.30;99.90;;;;;;4970212;28;20081;-65
2023/10/06 01:41:47;;;;;;;10.93;5.18;;;11.30;99.90;;;;;;4969470;28;20115;-67
2023/10/06 01:44:15;;;;;;;9.50;4.13;;;11.20;99.90;;;;;;4969984;28;20519;-64
2023/10/06 01:46:41;;;;;;;13.88;4.05;;;11.20;99.90;;;;;;4969998;28;20038;-68
2023/10/06 01:49:14;;;;;;;9.50;4.18;;;11.20;99.90;;;;;;4967341;28;20042;-65
2023/10/06 01:51:40;;;;;;;7.57;4.78;;;11.10;99.90;;;;;;4981668;28;20049;-68
2023/10/06 01:54:07;;;;;;;13.13;4.37;;;11.10;99.90;;;;;;4969512;28;20026;-67
2023/10/06 01:56:34;;;;;;;;;;;11.10;99.90;;;;;;4969396;28;20114;-65
2023/10/06 01:59:01;;;;;;;;;;;11.10;99.90;;;;;;4969516;28;19914;-68
2023/10/06 02:01:27;;;;;;;11.50;4.60;;;11.00;99.90;;;;;;4968693;28;19918;-67
2023/10/06 02:03:53;;;;;;;14.25;4.88;;;11.00;99.90;;;;;;4966146;28;20480;-65
2023/10/06 02:06:18;;;;;;;14.13;4.13;;;11.00;99.90;;;;;;4964606;28;20066;-67
2023/10/06 02:08:49;;;;;;;19.00;4.37;;;11.00;99.90;;;;;;4969153;28;20089;-65
2023/10/06 02:11:16;;;;;;;12.35;4.32;;;11.00;99.90;;;;;;4968562;28;20062;-66
2023/10/06 02:13:41;;;;;;;;;;;10.60;99.90;;;;;;4968623;28;20030;-64
2023/10/06 02:16:08;;;;;;;10.65;4.68;;;10.90;99.90;;;;;;4969153;28;19914;-66
2023/10/06 02:18:37;;;;;;;10.80;4.93;;;10.90;99.90;;;;;;4968664;28;20034;-65
2023/10/06 02:21:09;;;;;;;14.07;4.47;;;10.90;99.90;;;;;;4967985;28;20033;-64
2023/10/06 02:23:37;;;;;;;9.93;4.35;;;10.90;99.90;;;;;;4999128;28;20039;-68
2023/10/06 02:26:09;;;;;;;8.70;4.32;;;10.90;99.90;;;;;;4966990;28;20031;-69
2023/10/06 02:28:40;;;;;;;11.30;4.50;;;10.80;99.90;;;;;;4962062;28;20031;-69
2023/10/06 02:31:07;;;;;;;8.07;4.13;;;10.80;99.90;;;;;;4967533;28;20031;-69
2023/10/06 02:33:36;;;;;;;9.43;4.90;;;10.80;99.90;;;;;;4965940;28;20121;-69
2023/10/06 02:36:15;;;;;;;8.63;4.43;;;10.80;99.90;;;;;;4968454;28;20019;-65
2023/10/06 02:38:42;;;;;;;8.60;3.35;;;10.70;99.90;;;;;;4968306;28;20524;-66
2023/10/06 02:41:07;;;;;;;10.95;4.82;;;10.70;99.90;;;;;;4967098;28;20109;-63
2023/10/06 02:43:34;;;;;;;9.23;4.67;;;10.70;99.90;;;;;;4964904;28;20121;-67
2023/10/06 02:46:07;;;;;;;10.60;4.45;;;10.80;99.90;;;;;;4967614;28;20031;-64
2023/10/06 02:48:33;;;;;;;12.45;4.30;;;10.80;99.90;;;;;;4996007;28;20039;-63
2023/10/06 02:51:01;;;;;;;12.25;4.03;;;10.80;99.90;;;;;;4967172;28;20491;-63
2023/10/06 02:53:29;;;;;;;12.85;4.18;;;10.80;99.90;;;;;;4963954;28;20613;-63
2023/10/06 02:56:07;;;;;;;10.57;4.50;;;10.80;99.90;;;;;;4968293;28;20110;-65
2023/10/06 02:58:33;;;;;;;11.40;4.45;;;10.60;99.90;;;;;;4968703;28;20106;-63
2023/10/06 03:00:59;;;;;;;13.40;3.92;;;10.70;99.90;;;;;;4962467;28;20114;-64
2023/10/06 03:03:28;;;;;;;10.93;5.10;;;10.70;99.90;;;;;;4999207;28;20130;-64
2023/10/06 03:05:55;;;;;;;12.10;4.13;;;10.60;99.90;;;;;;4967576;28;20045;-67
2023/10/06 03:08:24;;;;;;;8.80;4.68;;;10.60;99.90;;;;;;4962128;28;20050;-64
2023/10/06 03:10:49;;;;;;;7.30;4.05;;;10.60;99.90;;;;;;4968013;28;20054;-64
2023/10/06 03:13:43;;;;;;;7.13;3.67;;;10.60;99.90;;;;;;4964834;28;20023;-66
2023/10/06 03:16:11;;;;;;;8.05;4.32;;;10.60;99.90;;;;;;4961665;28;20385;-63
2023/10/06 03:18:38;;;;;;;11.23;4.18;;;10.60;99.90;;;;;;4966152;28;20030;-63
2023/10/06 03:23:38;;;;;;;11.90;3.78;;;10.50;99.90;;;;;;4967219;28;20043;-63
2023/10/06 03:29:02;;;;;;;16.02;4.80;;;10.40;99.90;;;;;;4964320;28;20035;-66
2023/10/06 03:31:45;;;;;;;12.15;3.95;;;10.50;99.90;;;;;;4966097;28;20096;-69
2023/10/06 03:34:16;;;;;;;10.07;4.57;;;10.50;99.90;;;;;;4967011;28;20038;-68
2023/10/06 03:36:57;;;;;;;7.82;4.00;;;10.30;99.90;;;;;;4962255;28;20403;-69
2023/10/06 03:39:38;;;;;;;12.48;4.35;;;10.30;99.90;;;;;;4967118;28;20057;-68
2023/10/06 03:42:10;;;;;;;12.52;4.15;;;10.30;99.90;;;;;;4966741;28;20027;-66
2023/10/06 03:44:36;;;;;;;12.68;4.50;;;10.40;99.90;;;;;;4963954;28;20039;-63
2023/10/06 03:47:08;;;;;;;7.40;3.90;;;10.30;99.90;;;;;;4967458;28;20026;-63
2023/10/06 03:49:33;;;;;;;13.18;4.30;;;10.40;99.90;;;;;;4966748;28;20315;-63
2023/10/06 03:51:59;;;;;;;12.03;4.70;;;10.30;99.90;;;;;;4964398;28;20069;-65
2023/10/06 03:54:25;;;;;;;12.10;4.65;;;10.30;99.90;;;;;;4998560;28;20035;-67
2023/10/06 03:56:51;;;;;;;14.60;4.27;;;10.20;99.90;;;;;;4966419;28;20530;-67
2023/10/06 03:59:17;;;;;;;12.15;4.30;;;10.20;99.90;;;;;;4967346;28;20031;-63
2023/10/06 04:01:45;;;;;;;9.27;3.90;;;10.20;99.90;;;;;;4961183;28;20145;-68
2023/10/06 04:04:15;;;;;;;11.80;4.78;;;10.20;99.90;;;;;;4968131;28;20034;-67
2023/10/06 04:06:41;;;;;;;10.48;4.72;;;10.20;99.90;;;;;;4965872;28;20459;-70
2023/10/06 04:09:09;;;;;;;13.73;4.45;;;10.20;99.90;;;;;;4968996;28;20022;-69
2023/10/06 04:11:35;;;;;;;12.23;4.40;;;10.10;99.90;;;;;;4966751;28;20037;-68
2023/10/06 04:14:01;;;;;;;9.00;4.07;;;10.10;99.90;;;;;;4965024;28;20042;-68
2023/10/06 04:16:27;;;;;;;8.60;3.83;;;10.10;99.90;;;;;;4967716;28;20277;-67
2023/10/06 04:18:53;;;;;;;9.40;4.60;;;10.10;99.90;;;;;;4968024;28;20026;-66
2023/10/06 04:21:20;;;;;;;6.35;3.75;;;10.00;99.90;;;;;;4958969;28;20034;-66
2023/10/06 04:23:45;;;;;;;14.65;5.18;;;10.00;99.90;;;;;;4956309;28;20080;-66
2023/10/06 04:26:15;;;;;;;7.63;3.67;;;10.00;99.90;;;;;;4966138;28;20050;-64
2023/10/06 04:28:45;;;;;;;10.65;4.30;;;10.00;99.90;;;;;;4966554;28;20069;-67
2023/10/06 04:31:11;;;;;;;9.40;4.13;;;10.10;99.90;;;;;;4966086;28;20027;-68
2023/10/06 04:33:37;;;;;;;12.27;5.03;;;10.00;99.90;;;;;;4966632;28;20491;-68
2023/10/06 04:38:32;;;;;;;6.43;3.53;;;9.90;99.90;;;;;;4968800;28;20032;-68
2023/10/06 04:40:57;;;;;;;9.87;4.30;;;9.90;99.90;;;;;;4970081;28;20632;-66
2023/10/06 04:43:24;;;;;;;11.07;3.92;;;9.90;99.90;;;;;;4967682;28;20031;-67
2023/10/06 04:45:50;;;;;;;11.07;3.78;;;9.90;99.90;;;;;;4972472;28;20267;-65
2023/10/06 04:48:18;;;;;;;7.45;4.65;;;9.90;99.90;;;;;;4966402;28;20766;-64
2023/10/06 04:50:45;;;;;;;7.63;3.83;;;9.80;99.90;;;;;;4973641;28;20909;-66
2023/10/06 04:53:11;;;;;;;10.52;3.97;;;9.90;99.90;;;;;;4975921;28;20720;-65
2023/10/06 04:55:40;;;;;;;11.00;4.55;;;9.80;99.90;;;;;;4969055;28;20494;-64
2023/10/06 04:58:08;;;;;;;11.10;4.47;;;9.70;99.90;;;;;;4965008;28;20037;-64
2023/10/06 05:00:34;;;;;;;11.93;4.32;;;9.70;99.90;;;;;;4968836;28;20030;-67
2023/10/06 05:03:03;;;;;;;9.03;4.90;;;9.70;99.90;;;;;;4973893;28;20035;-64
2023/10/06 05:05:33;;;;;;;14.25;4.60;;;9.70;99.90;;;;;;4971026;28;20027;-64
2023/10/06 05:07:59;;;;;;;11.48;4.70;;;9.70;99.90;;;;;;4973851;28;20537;-64
2023/10/06 05:10:25;;;;;;;13.93;4.40;;;9.60;99.90;;;;;;4966614;28;20380;-68
2023/10/06 05:12:52;;;;;;;11.45;4.57;;;9.50;99.90;;;;;;4971446;28;20046;-68
2023/10/06 05:15:23;;;;;;;13.95;5.25;;;9.70;99.90;;;;;;4975318;28;20042;-68
2023/10/06 05:18:07;;;;;;;9.00;4.30;;;9.60;99.90;;;;;;4973765;28;20038;-64
2023/10/06 05:20:35;;;;;;;11.10;4.78;;;9.60;99.90;;;;;;4970075;28;20108;-69
2023/10/06 05:23:07;;;;;;;7.50;4.32;;;9.60;99.90;;;;;;4971604;28;20491;-69
2023/10/06 05:25:39;;;;;;;12.70;4.68;;;9.60;99.90;;;;;;4968202;28;20035;-69
2023/10/06 05:28:07;;;;;;;11.38;4.95;;;9.50;99.90;;;;;;4967893;28;20038;-69
2023/10/06 05:30:33;;;;;;;9.45;4.22;;;9.60;99.90;;;;;;4976244;28;20034;-69
2023/10/06 05:33:00;;;;;;;10.07;4.47;;;9.50;99.90;;;;;;4970451;28;20523;-69
2023/10/06 05:35:26;;;;;;;;;;;9.50;99.90;;;;;;4974545;28;20316;-66
2023/10/06 05:37:53;;;;;;;12.52;5.22;;;9.50;99.90;;;;;;4968185;28;19910;-68
2023/10/06 05:40:20;;;;;;;12.02;5.40;;;9.50;99.90;;;;;;4969459;28;20509;-64
2023/10/06 05:42:49;;;;;;;15.93;5.43;;;9.50;99.90;;;;;;4965962;28;20043;-64
2023/10/06 05:45:18;;;;;;;11.23;5.10;;;9.50;99.90;;;;;;4970616;28;20031;-64
2023/10/06 05:47:45;;;;;;;10.80;5.13;;;9.40;99.90;;;;;;4965127;28;20138;-63
2023/10/06 05:50:35;;;;;;;11.82;5.53;;;9.50;99.90;;;;;;5000869;28;20121;-66
2023/10/06 05:53:22;;;;;;;13.65;5.70;;;9.50;99.90;;;;;;4974007;28;20564;-63
2023/10/06 05:55:49;;;;;;;10.18;5.75;;;9.50;99.90;;;;;;5002935;28;20038;-64
2023/10/06 05:58:19;;;;;;;18.55;5.28;;;9.50;99.90;;;;;;4969412;28;20041;-67
2023/10/06 06:00:55;;;;;;;13.68;4.80;;;9.50;99.90;;;;;;4968379;28;20584;-65
2023/10/06 06:03:23;;;;;;;13.60;5.93;;;9.40;99.90;;;;;;4970172;28;20084;-64
2023/10/06 06:05:57;;;;;;;16.73;5.43;;;9.40;99.90;;;;;;4967091;28;20035;-65
2023/10/06 06:08:22;;;;;;;11.20;6.03;;;9.40;99.90;;;;;;4963481;28;20039;-64
2023/10/06 06:10:48;;;;;;;14.70;5.90;;;9.40;99.90;;;;;;4970020;28;20081;-65
2023/10/06 06:13:14;;;;;;;16.50;5.90;;;9.40;99.90;;;;;;4973722;28;20383;-65
2023/10/06 06:15:40;;;;;;;23.27;6.32;;;9.40;99.90;;;;;;4964346;28;20045;-65
2023/10/06 06:18:08;;;;;;;17.00;5.97;;;9.40;99.90;;;;;;4969640;28;20529;-65
2023/10/06 06:20:38;;;;;;;13.20;5.00;;;9.40;99.90;;;;;;4971381;28;20049;-66
2023/10/06 06:23:09;;;;;;;17.92;6.35;;;9.50;99.90;;;;;;4971507;28;20038;-67
2023/10/06 06:25:39;;;;;;;12.93;5.07;;;9.40;99.90;;;;;;4972788;28;20502;-66
2023/10/06 06:28:07;;;;;;;8.95;5.10;;;9.50;99.90;;;;;;4967789;28;20031;-67
2023/10/06 06:30:37;;;;;;;17.25;5.40;;;9.40;99.90;;;;;;4971194;28;20031;-65
2023/10/06 06:33:12;;;;;;;16.40;5.28;;;9.50;99.90;;;;;;4969255;28;20431;-67
2023/10/06 06:35:42;;;;;;;15.27;4.97;;;9.50;99.90;;;;;;4968626;28;20043;-65
2023/10/06 06:38:07;;;;;;;16.90;5.88;;;9.70;99.90;;;;;;4969734;28;20026;-64
2023/10/06 06:40:37;;;;;;;12.93;6.33;;;9.60;99.90;;;;;;4985372;28;20507;-64
2023/10/06 06:43:09;;;;;;;14.45;4.60;;;9.80;99.90;;;;;;4973529;28;20103;-67
2023/10/06 06:45:39;;;;;;;17.17;4.97;;;9.80;99.90;;;;;;4970345;28;20027;-65
2023/10/06 06:48:10;;;;;;;14.48;5.65;;;9.80;99.90;;;;;;4963824;28;20043;-65
2023/10/06 06:50:37;;;;;;;13.00;5.05;;;9.90;99.90;;;;;;4965712;28;20691;-64
2023/10/06 06:53:04;;;;;;;13.77;5.00;;;10.00;99.90;;;;;;4968028;28;20043;-63
2023/10/06 06:55:30;;;;;;;10.88;5.13;;;10.10;99.90;;;;;;4966363;28;20518;-64
2023/10/06 06:57:57;;;;;;;10.50;5.72;;;10.30;99.90;;;;;;4965074;28;20030;-67
2023/10/06 07:00:24;;;;;;;14.45;4.97;;;10.60;99.90;;;;;;4964795;28;20454;-65
2023/10/06 07:02:51;;;;;;;15.77;5.75;;;11.00;99.90;;;;;;4969887;28;20042;-66
2023/10/06 07:05:19;;;;;;;10.77;4.40;;;11.90;99.90;;;;;;4969667;28;20041;-63
2023/10/06 07:07:46;;;;;;;15.65;5.53;;;12.70;99.90;;;;;;4986707;28;20063;-62
2023/10/06 07:10:19;;;;;;;11.45;5.45;;;11.80;99.90;;;;;;4962201;28;20391;-62
2023/10/06 07:12:47;;;;;;;17.83;5.32;;;11.20;99.90;;;;;;4968955;28;20026;-65
2023/10/06 07:15:16;;;;;;;18.83;5.30;;;11.50;99.90;;;;;;4967929;28;20058;-64
2023/10/06 07:17:45;;;;;;;15.50;5.65;;;11.90;99.90;;;;;;4961149;28;20039;-68
2023/10/06 07:20:14;;;;;;;13.45;4.93;;;11.70;99.90;;;;;;4969789;28;20038;-68
2023/10/06 07:22:53;;;;;;;14.30;4.93;;;11.90;99.90;;;;;;4973014;28;20046;-64
2023/10/06 07:25:20;;;;;;;12.98;5.68;;;12.50;99.90;;;;;;4971675;28;20499;-67
2023/10/06 07:27:47;;;;;;;;;;;12.90;99.90;;;;;;4968865;28;20026;-68
2023/10/06 07:30:14;;;;;;;;;;;13.10;99.90;;;;;;4974547;28;19936;-67
2023/10/06 07:32:44;;;;;;;19.40;5.90;;;12.50;99.90;;;;;;4965643;28;19920;-65
2023/10/06 07:35:11;;;;;;;9.25;5.05;;;12.80;99.90;;;;;;4965252;28;20030;-64
2023/10/06 07:37:44;;;;;;;16.85;5.15;;;13.10;99.90;;;;;;4969101;28;20117;-65
2023/10/06 07:40:14;;;;;;;11.25;5.32;;;13.00;99.90;;;;;;4960870;28;20497;-67
2023/10/06 07:42:44;;;;;;;13.98;5.20;;;13.20;99.90;;;;;;4963587;28;20073;-66
2023/10/06 07:45:10;;;;;;;15.98;5.32;;;14.60;99.90;;;;;;4965874;28;20565;-66
2023/10/06 07:47:37;;;;;;;11.30;5.88;;;15.00;99.90;;;;;;4965860;28;20027;-68
2023/10/06 07:50:09;;;;;;;13.38;5.43;;;15.90;99.90;;;;;;4953622;28;20656;-69
2023/10/06 07:52:38;;;;;;;18.48;8.20;;;17.90;98.60;;;;;;4998645;28;20106;-67
2023/10/06 07:55:09;;;;;;;16.95;7.00;;;18.50;96.20;;;;;;4966428;28;20404;-68
2023/10/06 07:57:36;;;;;;;22.73;7.60;;;17.40;97.00;;;;;;4965867;28;20479;-69
2023/10/06 08:00:07;;;;;;;20.98;8.45;;;16.70;98.50;;;;;;4965123;28;20113;-66
2023/10/06 08:02:39;;;;;;;21.15;7.43;;;18.10;97.20;;;;;;4999416;28;20057;-69
2023/10/06 08:05:17;;;;;;;16.80;7.57;;;19.90;93.50;;;;;;4967349;28;20415;-68
2023/10/06 08:07:43;;;;;;;14.27;6.82;;;18.50;95.20;;;;;;4969815;28;20406;-66
2023/10/06 08:10:16;;;;;;;;;;;19.90;96.50;;;;;;4970803;28;20122;-65
2023/10/06 08:12:53;;;;;;;13.43;6.05;;;21.90;95.30;;;;;;4965117;28;20016;-65
2023/10/06 08:15:22;;;;;;;16.58;6.03;;;22.50;92.50;;;;;;4964351;28;20507;-65
2023/10/06 08:17:55;;;;;;;13.63;5.78;;;23.30;91.80;;;;;;4967087;28;20035;-66
2023/10/06 08:20:21;;;;;;;12.63;5.60;;;23.60;91.10;;;;;;4966383;28;20034;-67
2023/10/06 08:22:49;;;;;;;13.50;5.70;;;23.90;90.60;;;;;;4967058;28;20039;-65
2023/10/06 08:25:19;;;;;;;10.27;5.07;;;24.60;82.10;;;;;;4965368;28;20046;-65
2023/10/06 08:27:46;;;;;;;12.00;5.72;;;24.20;79.10;;;;;;4967651;28;20038;-65
2023/10/06 08:30:18;;;;;;;14.90;5.53;;;24.20;78.70;;;;;;4971473;28;20057;-65
2023/10/06 08:32:45;;;;;;;10.38;5.38;;;;;;;;;;4976577;28;20042;-68
2023/10/06 08:35:14;;;;;;;14.30;5.28;;;25.70;83.20;;;;;;4967295;28;20030;-65
2023/10/06 08:37:44;;;;;;;14.98;5.75;;;25.70;76.80;;;;;;4971299;28;20045;-65
2023/10/06 08:40:17;;;;;;;9.80;4.72;;;26.00;76.70;;;;;;4962193;28;20061;-66
2023/10/06 08:42:48;;;;;;;13.10;5.05;;;;;;;;;;4973095;28;20042;-67
2023/10/06 08:45:36;;;;;;;13.02;5.00;;;;;;;;;;4968544;28;20031;-65
2023/10/06 08:48:02;;;;;;;11.35;5.28;;;;;;;;;;4964182;28;20129;-66
2023/10/06 08:50:29;;;;;;;7.07;4.65;;;;;;;;;;4969930;28;20034;-67
2023/10/06 08:52:56;;;;;;;13.30;4.95;;;;;;;;;;4969542;28;20037;-69
2023/10/06 08:55:23;;;;;;;10.73;4.72;;;;;;;;;;4965928;28;20026;-69
2023/10/06 08:57:50;;;;;;;12.65;5.25;;;27.60;58.10;;;;;;4998178;28;20495;-69
2023/10/06 09:00:31;;;;;;;15.73;5.68;;;27.70;58.80;;;;;;4967941;28;20078;-68
2023/10/06 09:03:03;;;;;;;8.15;4.47;;;27.80;59.00;;;;;;4971988;28;20038;-70
2023/10/06 09:05:30;;;;;;;8.85;5.03;;;27.80;58.20;;;;;;4964302;28;20565;-70
2023/10/06 09:08:07;;;;;;;12.77;5.57;;;28.50;57.10;;;;;;4972335;28;20045;-70
2023/10/06 09:10:35;;;;;;;11.60;5.00;;;28.40;57.50;;;;;;4967106;28;20026;-70
2023/10/06 09:13:07;;;;;;;7.85;5.05;;;28.20;57.30;;;;;;4966527;28;20426;-70
2023/10/06 09:15:37;;;;;;;6.07;3.97;;;27.80;58.60;;;;;;4961823;28;20098;-70
2023/10/06 09:18:19;;;;;;;8.88;4.75;;;28.30;59.70;;;;;;4964731;28;20035;-67
2023/10/06 09:20:47;;;;;;;11.23;5.25;;;28.90;58.80;;;;;;4964855;28;20070;-68
2023/10/06 09:23:31;;;;;;;10.90;4.35;;;28.80;56.70;;;;;;4969542;28;20565;-66
2023/10/06 09:25:58;;;;;;;10.93;4.53;;;28.60;56.90;;;;;;4975701;28;20522;-65
2023/10/06 09:28:24;;;;;;;11.73;4.40;;;28.30;56.70;;;;;;4966988;28;20043;-64
2023/10/06 09:30:56;;;;;;;11.50;3.80;;;27.90;59.00;;;;;;4971838;28;20085;-66
2023/10/06 09:33:26;;;;;;;10.63;4.03;;;25.80;60.80;;;;;;4966631;28;20161;-68
2023/10/06 09:36:10;;;;;;;10.27;4.30;;;23.70;65.00;;;;;;4970205;28;20030;-68
2023/10/06 09:38:38;;;;;;;8.10;3.58;;;22.90;65.60;;;;;;4971459;28;20233;-66
2023/10/06 09:41:07;;;;;;;11.63;3.70;;;22.60;66.80;;;;;;4972319;28;20038;-68
2023/10/06 09:43:34;;;;;;;10.60;4.72;;;21.80;68.00;;;;;;4967286;28;20086;-73
2023/10/06 09:46:06;;;;;;;7.07;3.47;;;21.00;71.10;;;;;;4972576;28;20560;-74
2023/10/06 09:48:36;;;;;;;10.73;3.72;;;20.30;70.20;;;;;;4998631;28;20054;-71
2023/10/06 09:51:06;;;;;;;7.95;4.00;;;20.70;73.00;;;;;;4967624;28;20101;-70
2023/10/06 09:53:36;;;;;;;7.00;3.70;;;20.40;71.00;;;;;;4975131;28;20022;-75
2023/10/06 09:56:03;;;;;;;12.00;3.97;;;19.90;72.60;;;;;;5004579;28;20037;-72
2023/10/06 09:58:30;;;;;;;14.68;4.40;;;19.30;73.40;;;;;;4976482;28;20027;-68
2023/10/06 10:00:56;;;;;;;;;;;19.40;74.30;;;;;;4975525;28;20097;-68
2023/10/06 10:03:22;;;;;;;15.38;4.55;;;19.20;74.50;;;;;;4972905;28;19928;-69
2023/10/06 10:05:49;;;;;;;9.32;3.85;;;19.40;74.50;;;;;;4969489;28;20410;-69
2023/10/06 10:08:15;;;;;;;7.75;3.67;;;18.80;76.10;;;;;;4969949;28;20058;-69
2023/10/06 10:10:44;;;;;;;12.70;4.45;;;19.00;76.10;;;;;;4963449;28;20023;-67
2023/10/06 10:13:26;;;;;;;12.18;4.10;;;18.90;76.60;;;;;;4970815;28;21325;-69
2023/10/06 10:15:59;;;;;;;7.82;4.43;;;19.00;77.10;;;;;;4968156;28;20510;-67
2023/10/06 10:18:39;;;;;;;9.38;3.70;;;18.90;78.30;;;;;;4968343;28;20691;-68
2023/10/06 10:21:09;;;;;;;9.63;4.30;;;18.60;78.50;;;;;;4973779;28;20026;-68
2023/10/06 10:23:37;;;;;;;16.58;4.78;;;18.70;82.20;;;;;;4971352;28;20041;-73
2023/10/06 10:26:31;;;;;;;16.90;4.65;;;18.80;95.30;;;;;;4962434;28;20023;-79
2023/10/06 10:29:12;;;;;;;11.00;4.25;;;18.80;95.10;;;;;;4970573;28;20030;-71
2023/10/06 10:32:10;;;;;;;11.75;4.35;;;18.80;92.40;;;;;;4962415;28;20034;-68
2023/10/06 10:35:09;;;;;;;23.88;5.45;;;18.70;83.90;;;;;;4966887;28;20678;-79
2023/10/06 10:38:02;;;;;;;11.63;4.63;;;18.40;83.50;;;;;;4973050;28;20030;-77
2023/10/06 10:40:31;;;;;;;10.93;4.43;;;18.50;83.80;;;;;;4972764;28;20042;-79
2023/10/06 10:43:04;;;;;;;15.80;4.30;;;18.50;82.70;;;;;;4967682;28;20129;-67
2023/10/06 10:45:43;;;;;;;15.95;4.15;;;18.40;82.40;;;;;;4972942;28;20511;-83
2023/10/06 10:48:13;;;;;;;13.38;3.80;;;18.30;82.30;;;;;;4970860;28;20027;-76
2023/10/06 10:51:03;;;;;;;14.88;3.97;;;18.40;82.00;;;;;;4969901;28;20029;-66
2023/10/06 10:53:31;;;;;;;15.75;5.15;;;18.40;82.70;;;;;;4974802;28;20027;-67
2023/10/06 10:55:57;;;;;;;7.68;4.70;;;18.40;84.10;;;;;;4967326;28;20031;-65
2023/10/06 10:58:43;;;;;;;11.60;4.68;;;18.50;83.10;;;;;;4969851;28;20027;-65
2023/10/06 11:01:31;;;;;;;12.55;4.13;;;18.50;81.50;;;;;;5001989;28;20039;-67
2023/10/06 11:04:09;;;;;;;21.52;5.20;;;18.50;83.10;;;;;;4996860;28;20046;-64
2023/10/06 11:06:37;;;;;;;17.52;5.00;;;18.50;82.40;;;;;;4970992;28;20097;-66
2023/10/06 11:09:12;;;;;;;11.88;4.70;;;18.50;82.10;;;;;;4969695;28;20081;-67
2023/10/06 11:11:41;;;;;;;12.48;4.70;;;18.60;81.90;;;;;;4971138;28;20034;-68
2023/10/06 11:14:07;;;;;;;6.88;4.05;;;18.50;82.40;;;;;;4965628;28;20444;-67
2023/10/06 11:16:35;;;;;;;12.40;4.45;;;18.50;81.90;;;;;;4971681;28;20062;-67
2023/10/06 11:19:03;;;;;;;18.50;4.55;;;18.60;82.60;;;;;;4973359;28;20031;-67
2023/10/06 11:21:31;;;;;;;11.65;4.00;;;18.60;82.60;;;;;;4971961;28;20030;-67
2023/10/06 11:23:58;;;;;;;12.95;4.20;;;18.70;82.90;;;;;;4974773;28;20146;-67
2023/10/06 11:26:33;;;;;;;9.25;4.15;;;18.70;83.50;;;;;;4970946;28;20125;-64
2023/10/06 11:29:00;;;;;;;10.63;4.13;;;18.60;82.50;;;;;;4973962;28;20519;-64
2023/10/06 11:31:29;;;;;;;11.95;3.53;;;18.80;82.80;;;;;;4967987;28;20421;-63
2023/10/06 11:33:56;;;;;;;9.45;4.50;;;18.90;83.40;;;;;;4966881;28;20113;-63
2023/10/06 11:36:22;;;;;;;7.90;3.33;;;18.90;82.00;;;;;;4970218;28;20035;-64
2023/10/06 11:38:48;;;;;;;8.70;3.97;;;19.10;82.30;;;;;;4971239;28;20027;-63
2023/10/06 11:41:27;;;;;;;12.80;3.40;;;19.20;84.10;;;;;;4966706;28;20035;-67
2023/10/06 11:43:58;;;;;;;9.27;4.05;;;19.40;82.80;;;;;;4971889;28;20084;-65
2023/10/06 11:46:24;;;;;;;7.78;3.47;;;19.60;81.80;;;;;;4969953;28;20026;-65
2023/10/06 11:48:52;;;;;;;10.87;3.30;;;19.60;81.50;;;;;;4965440;28;20086;-66
2023/10/06 11:51:18;;;;;;;9.55;3.42;;;19.70;80.00;;;;;;4961982;28;20726;-65
2023/10/06 11:53:44;;;;;;;10.60;3.55;;;19.90;79.80;;;;;;4975142;28;20034;-64
2023/10/06 11:56:13;;;;;;;5.95;3.47;;;20.00;80.10;;;;;;4996723;28;20041;-64
2023/10/06 11:58:40;;;;;;;9.73;4.32;;;20.10;80.40;;;;;;4968177;28;20126;-64
2023/10/06 12:01:31;;;;;;;8.27;3.83;;;20.30;79.60;;;;;;4966633;28;20655;-64
2023/10/06 12:04:00;;;;;;;9.23;3.40;;;20.40;79.70;;;;;;4979026;28;20047;-64
2023/10/06 12:06:45;;;;;;;19.00;4.05;;;20.70;80.80;;;;;;5001572;28;20125;-64
2023/10/06 12:09:24;;;;;;;13.43;3.58;;;20.70;79.30;;;;;;4969650;28;20050;-65
2023/10/06 12:11:50;;;;;;;10.02;3.28;;;20.50;76.20;;;;;;4967756;28;20059;-64
2023/10/06 12:14:15;;;;;;;10.50;3.70;;;20.60;78.20;;;;;;4996061;28;20407;-64
2023/10/06 12:16:44;;;;;;;9.17;3.17;;;20.80;80.50;;;;;;4969220;28;20042;-66
2023/10/06 12:19:11;;;;;;;9.13;3.28;;;20.80;79.00;;;;;;4969373;28;20034;-64
2023/10/06 12:21:37;;;;;;;8.40;4.38;;;20.90;78.70;;;;;;4966718;28;20034;-66
2023/10/06 12:24:02;;;;;;;7.57;4.20;;;21.00;79.00;;;;;;5006404;28;20034;-67
2023/10/06 12:26:31;;;;;;;5.25;3.05;;;21.00;79.20;;;;;;4978561;28;20035;-65
2023/10/06 12:28:58;;;;;;;7.13;3.35;;;21.00;78.80;;;;;;4971253;28;20023;-64
2023/10/06 12:31:24;;;;;;;6.90;3.10;;;21.20;77.70;;;;;;4967078;28;20034;-64
2023/10/06 12:33:54;;;;;;;10.65;3.45;;;21.00;78.80;;;;;;4969443;28;20502;-64
2023/10/06 12:36:20;;;;;;;11.15;4.13;;;21.00;77.60;;;;;;4970100;28;20569;-64
2023/10/06 12:38:46;;;;;;;7.15;2.88;;;21.10;77.90;;;;;;4967793;28;20543;-64
2023/10/06 12:41:12;;;;;;;7.10;3.50;;;21.20;79.40;;;;;;4969140;28;20105;-64
2023/10/06 12:43:38;;;;;;;6.55;3.03;;;21.30;77.60;;;;;;5005160;28;20145;-66
2023/10/06 12:46:04;;;;;;;7.00;2.95;;;21.10;79.80;;;;;;4967526;28;20038;-65
2023/10/06 12:48:30;;;;;;;;;;;21.30;76.90;;;;;;4965059;28;20023;-66
2023/10/06 12:50:57;;;;;;;7.35;3.25;;;21.30;76.40;;;;;;4968905;28;19973;-65
2023/10/06 12:53:22;;;;;;;6.50;2.95;;;21.20;75.60;;;;;;4966807;28;20035;-66
2023/10/06 12:55:56;;;;;;;7.23;3.50;;;21.30;78.10;;;;;;4966578;28;20104;-67
2023/10/06 12:58:22;;;;;;;7.70;3.38;;;21.30;75.50;;;;;;4999119;28;20038;-66
2023/10/06 13:00:48;;;;;;;13.05;3.40;;;21.30;74.70;;;;;;4966825;28;20055;-66
2023/10/06 13:03:17;;;;;;;7.60;3.47;;;21.40;75.50;;;;;;4969460;28;20154;-64
2023/10/06 13:05:46;;;;;;;9.27;3.08;;;21.40;76.20;;;;;;4971533;28;20339;-66
2023/10/06 13:08:24;;;;;;;16.80;4.45;;;21.40;75.90;;;;;;4974208;28;20038;-64
2023/10/06 13:10:51;;;;;;;6.47;2.90;;;21.50;76.50;;;;;;4973886;28;20518;-66
2023/10/06 13:13:17;;;;;;;6.15;3.20;;;21.50;76.20;;;;;;4972351;28;20141;-64
2023/10/06 13:15:46;;;;;;;6.38;3.13;;;21.40;74.40;;;;;;5002229;28;20546;-64